Elkridge, Maryland
Current Conditions -  °F | °C
As of 3:54 PM on Wednesday 17 Dec 2014 (Local Time) from KBWI Reporting Station
Scattered Clouds Scattered Clouds  
Wind Chill: 44°   Ceiling: Unl
Heat Index: 49°   Visibility: 10mi
Dew Point: 28°   Wind: 13mph
Humidity: 44%   Direction: 300°WNW
Pressure: 29.97"   Gusts: 22mph
Location:  39.21°N, 76.73°W
Report Text: KBWI 172054Z 30011G19KT 10SM FEW055 SCT150 09/M02 A2997 RMK AO2 SLP147 T00941022 53006
Loading
Personal Weather Stations






























Interactive Weather Map New forecast layout! Learn more

10-Day Weather Forecast

Advertisements
Track Severe Weather on mobile